San Antonio, Texas
Traffic Map
Current Weather Conditions
San Antonio, Texas
Scattered Clouds
Scattered Clouds
26°
Feels Like: 28°
Wind Chill: 26° Ceiling: Unl
Heat Index: 28° Visibility: 10mi
Dew Point: 24° Wind: 3mph
Humidity: 89% Direction: 160° (SSE)
Pressure: 29.7in Gusts: 0mph
Raw Report DataKSKF 250028Z AUTO 16003KT 10SM SCT033 26/24 A2970 RMK AO2 $
Traffic Incident Summary
Active as of:
Severity:
Category:
InformationThere was an issue retrieving the traffic information for this location. Please try a different location or try again shortly.
Advertisements
Track Severe Weather on mobile